1936 Tropical Cyclone NOT_NAMED (1936078S14155)


IBTrACS version v04r00. Visit IBTrACS website for data access.
Please direct all questions to the IBTrACS Q and A forum

Storm track - Intensity - Wind Radii - Intensity Data - Source Data - All data

Summary Information

Storm ID 1936078S14155
Start Mar 17 23Z
Max Intensity 45 kt (Mar 20 00Z), 992 mb (Mar 19 23Z)
End Mar 23 23Z
ATCF IDs
Track status Best track data.

Storm track plot

Map of storm track

Intensity plots

Map of storm track

Radial wind information

No radial wind information for this storm


Position and Intensity Table

BASIN ISO_TIME_________ NATURE LAT LON WMO PRES BOM PRES DS824 WIND DS824 PRES
degrees north degrees east mb mb kts mb
SP 1936-03-17 23:00:00 NR -13.65 155.05
SP 1936-03-18 00:00:00 TS -13.76 154.99
SP 03:00:00 TS -14.05 154.78
SP 06:00:00 TS -14.33 154.58
SP 09:00:00 TS -14.62 154.37
SP 11:00:00 TS -14.81 154.23
SP 12:00:00 TS -14.91 154.16
SP 15:00:00 TS -15.20 153.95
SP 18:00:00 TS -15.49 153.75
SP 21:00:00 TS -15.79 153.56
SP 23:00:00 TS -16.00 153.45
SP 1936-03-19 00:00:00 TS -16.10 153.40
SP 03:00:00 TS -16.43 153.26
SP 06:00:00 TS -16.77 153.14
SP 09:00:00 TS -17.11 153.04
SP 11:00:00 TS -17.34 152.99
SP 12:00:00 TS -17.45 152.96
SP 15:00:00 TS -17.80 152.90
SP 18:00:00 TS -18.14 152.86
SP 21:00:00 TS -18.49 152.85
SP 23:00:00 TS -18.73 152.86 992 992
SP 1936-03-20 00:00:00 TS -18.85 152.87 45 992
SP 03:00:00 TS -19.22 152.91
SP 06:00:00 TS -19.59 152.98
SP 09:00:00 TS -19.96 153.07
SP 11:00:00 TS -20.21 153.14
SP 12:00:00 TS -20.33 153.18
SP 15:00:00 TS -20.69 153.31
SP 18:00:00 TS -21.04 153.46
SP 21:00:00 TS -21.36 153.61
SP 23:00:00 TS -21.57 153.72
SP 1936-03-21 00:00:00 TS -21.67 153.76
SP 03:00:00 TS -21.94 153.90
SP 06:00:00 TS -22.19 154.04
SP 09:00:00 TS -22.42 154.19
SP 11:00:00 TS -22.56 154.29
SP 12:00:00 TS -22.62 154.34
SP 15:00:00 TS -22.81 154.51
SP 18:00:00 TS -22.98 154.68
SP 21:00:00 TS -23.14 154.87
SP 23:00:00 TS -23.25 155.01
SP 1936-03-22 00:00:00 TS -23.30 155.08
SP 03:00:00 TS -23.47 155.28
SP 06:00:00 TS -23.62 155.50
SP 09:00:00 TS -23.77 155.73
SP 11:00:00 TS -23.87 155.89
SP 12:00:00 TS -23.91 155.96
SP 15:00:00 TS -24.04 156.19
SP 18:00:00 TS -24.17 156.44
SP 21:00:00 TS -24.30 156.73
SP 23:00:00 TS -24.41 156.96
SP 1936-03-23 00:00:00 TS -24.47 157.10
SP 03:00:00 NR -24.68 157.60
SP 06:00:00 NR -24.94 158.17
SP 09:00:00 NR -25.22 158.79
SP 11:00:00 NR -25.43 159.23
SP 12:00:00 NR -25.54 159.44
SP 14:00:00 NR -25.76 159.88
SP 15:00:00 NR -25.88 160.10
SP 18:00:00 NR -26.25 160.76
SP 21:00:00 NR -26.64 161.41
SP 23:00:00 NR -26.90 161.85

Source Information

Agency Information
USA
TOKYO
CMA
HKO
NEWDELHI
REUNION
BOM IDCKMSTM0S.csv:Line=901:unnamed
NADI
WELLINGTON
DS824 aus_area.dat:87:NOT NAMED
TD9636 cons_worldwide_trop_cyclone_18710101-19891231-006:Line=2096
TD9635
NEUMANN
MLC

All available IBTrACS Data

SEASON BASIN SUBBASIN ISO_TIME_________ NATURE LAT LON WMO PRES WMO AGENCY DIST2LAND LANDFALL IFLAG USA SSHS BOM LAT BOM LON BOM PRES BOM PRES_METHOD DS824 LAT DS824 LON DS824 STAGE DS824 WIND DS824 PRES TD9636 LAT TD9636 LON TD9636 STAGE STORM SPEED STORM DIR
Year degrees north degrees east mb km km 1 degrees north degrees east mb degrees north degrees east kts mb degrees north degrees east kts degrees
1936 SP EA 1936-03-17 23:00:00 NR -13.65 155.05 bom 584 582 ______O___O___ -1 -13.70 155.10 -13.60 155.00 7 7 205
1936 SP EA 1936-03-18 00:00:00 TS -13.76 154.99 589 580 ______P__OP___ -1 -13.79 155.02 -13.80 155.00 TC -13.70 154.95 7 7 213
1936 SP EA 03:00:00 TS -14.05 154.78 586 584 ______P__PP___ -1 -14.07 154.79 -14.08 154.78 TC -14.00 154.78 7 7 215
1936 SP EA 06:00:00 TS -14.33 154.58 592 592 ______P__PP___ -1 -14.35 154.55 -14.35 154.56 TC -14.31 154.61 7 7 215
1936 SP EA 09:00:00 TS -14.62 154.37 601 601 ______P__PP___ -1 -14.63 154.32 -14.63 154.35 TC -14.60 154.43 7 7 215
1936 SP EA 11:00:00 TS -14.81 154.23 604 604 ______P__PO___ -1 -14.81 154.18 -14.82 154.21 TC -14.80 154.30 7 7 215
1936 SP EA 12:00:00 TS -14.91 154.16 613 606 ______P__PP___ -1 -14.91 154.10 -14.91 154.14 TC -14.90 154.23 7 7 215
1936 SP EA 15:00:00 TS -15.20 153.95 627 621 ______P__PP___ -1 -15.20 153.89 -15.20 153.94 TC -15.19 154.02 7 7 214
1936 SP EA 18:00:00 TS -15.49 153.75 637 637 ______P__PP___ -1 -15.49 153.70 -15.49 153.75 TC -15.48 153.81 7 7 212
1936 SP EA 21:00:00 TS -15.79 153.56 661 656 ______P__PP___ -1 -15.79 153.51 -15.79 153.57 TC -15.79 153.61 7 7 210
1936 SP EA 23:00:00 TS -16.00 153.45 bom 676 671 ______O__PO___ -1 -16.00 153.40 -16.00 153.45 TC -16.00 153.50 7 7 207
1936 SP EA 1936-03-19 00:00:00 TS -16.10 153.40 675 644 ______P__OP___ -1 -16.10 153.35 -16.10 153.40 TC -16.11 153.45 7 7 203
1936 SP EA 03:00:00 TS -16.43 153.26 644 606 ______P__PP___ -1 -16.42 153.20 -16.42 153.25 TC -16.45 153.32 7 7 201
1936 SP EA 06:00:00 TS -16.77 153.14 598 569 ______P__PP___ -1 -16.75 153.07 -16.74 153.12 TC -16.80 153.22 7 7 197
1936 SP EA 09:00:00 TS -17.11 153.04 569 555 ______P__PP___ -1 -17.09 152.97 -17.07 153.01 TC -17.16 153.14 7 7 194
1936 SP EA 11:00:00 TS -17.34 152.99 555 548 ______P__PO___ -1 -17.31 152.91 -17.30 152.94 TC -17.40 153.10 7 7 194
1936 SP EA 12:00:00 TS -17.45 152.96 541 513 ______P__PP___ -1 -17.43 152.89 -17.41 152.91 TC -17.52 153.08 7 7 189
1936 SP EA 15:00:00 TS -17.80 152.90 513 495 ______P__PP___ -1 -17.77 152.83 -17.75 152.85 TC -17.86 153.02 7 7 187
1936 SP EA 18:00:00 TS -18.14 152.86 495 474 ______P__PP___ -1 -18.12 152.80 -18.10 152.80 TC -18.21 152.99 7 7 184
1936 SP EA 21:00:00 TS -18.49 152.85 474 464 ______P__PP___ -1 -18.47 152.79 -18.45 152.79 TC -18.56 152.99 7 7 179
1936 SP EA 23:00:00 TS -18.73 152.86 992 bom 464 459 ______O__PO___ -1 -18.70 152.80 992 4 -18.68 152.79 TC -18.80 153.00 7 7 177
1936 SP EA 1936-03-20 00:00:00 TS -18.85 152.87 459 424 ______P__OP___ -1 -18.82 152.80 -18.80 152.80 TC 45 992 -18.92 153.01 7 7 176
1936 SP EA 03:00:00 TS -19.22 152.91 424 393 ______P__PP___ -1 -19.19 152.84 -19.17 152.83 TC -19.30 153.05 7 8 173
1936 SP EA 06:00:00 TS -19.59 152.98 393 367 ______P__PP___ -1 -19.56 152.90 -19.54 152.90 TC -19.68 153.12 7 8 169
1936 SP EA 09:00:00 TS -19.96 153.07 365 349 ______P__PP___ -1 -19.93 152.99 -19.91 152.99 TC -20.05 153.22 7 8 166
1936 SP EA 11:00:00 TS -20.21 153.14 349 349 ______P__PO___ -1 -20.17 153.06 -20.15 153.07 TC -20.30 153.30 7 8 164
1936 SP EA 12:00:00 TS -20.33 153.18 349 327 ______P__PP___ -1 -20.30 153.09 -20.27 153.11 TC -20.42 153.34 7 8 162
1936 SP EA 15:00:00 TS -20.69 153.31 327 316 ______P__PP___ -1 -20.65 153.22 -20.63 153.24 TC -20.80 153.48 7 8 160
1936 SP EA 18:00:00 TS -21.04 153.46 325 314 ______P__PP___ -1 -20.99 153.35 -20.97 153.38 TC -21.16 153.63 7 7 157
1936 SP EA 21:00:00 TS -21.36 153.61 313 313 ______P__PP___ -1 -21.30 153.50 -21.30 153.54 TC -21.49 153.79 7 7 155
1936 SP EA 23:00:00 TS -21.57 153.72 bom 315 315 ______O__PO___ -1 -21.50 153.60 -21.50 153.65 TC -21.70 153.90 7 7 154
1936 SP EA 1936-03-21 00:00:00 TS -21.67 153.76 321 318 ______P__OP___ -1 -21.59 153.64 -21.60 153.70 TC -21.80 153.95 7 6 156
1936 SP EA 03:00:00 TS -21.94 153.90 326 299 ______P__PP___ -1 -21.86 153.77 -21.87 153.83 TC -22.09 154.09 7 6 154
1936 SP EA 06:00:00 TS -22.19 154.04 299 280 ______P__PP___ -1 -22.10 153.91 -22.12 153.96 TC -22.34 154.24 7 5 151
1936 SP EA 09:00:00 TS -22.42 154.19 283 272 ______P__PP___ -1 -22.33 154.06 -22.35 154.11 TC -22.57 154.39 7 5 147
1936 SP EA 11:00:00 TS -22.56 154.29 266 266 ______P__PO___ -1 -22.47 154.16 -22.50 154.21 TC -22.70 154.50 7 5 145
1936 SP EA 12:00:00 TS -22.62 154.34 266 254 ______P__PP___ -1 -22.54 154.22 -22.57 154.26 TC -22.76 154.55 7 5 141
1936 SP EA 15:00:00 TS -22.81 154.51 254 246 ______P__PP___ -1 -22.73 154.39 -22.77 154.43 TC -22.93 154.71 7 5 139
1936 SP EA 18:00:00 TS -22.98 154.68 246 243 ______P__PP___ -1 -22.91 154.57 -22.95 154.60 TC -23.07 154.88 7 5 135
1936 SP EA 21:00:00 TS -23.14 154.87 250 241 ______P__PP___ -1 -23.09 154.76 -23.13 154.79 TC -23.20 155.06 7 5 132
1936 SP EA 23:00:00 TS -23.25 155.01 bom 248 240 ______O__PO___ -1 -23.20 154.90 -23.24 154.93 TC -23.30 155.20 7 5 131
1936 SP EA 1936-03-22 00:00:00 TS -23.30 155.08 247 240 ______P__OP___ -1 -23.25 154.95 -23.30 155.00 TC -23.36 155.28 7 5 131
1936 SP EA 03:00:00 TS -23.47 155.28 249 249 ______P__PP___ -1 -23.39 155.10 -23.46 155.22 TC -23.54 155.52 7 5 129
1936 SP EA 06:00:00 TS -23.62 155.50 260 260 ______P__PP___ -1 -23.52 155.26 -23.62 155.46 TC -23.73 155.78 7 5 127
1936 SP EA 09:00:00 TS -23.77 155.73 267 267 ______P__PP___ -1 -23.65 155.44 -23.77 155.71 TC -23.90 156.04 7 5 125
1936 SP EA 11:00:00 TS -23.87 155.89 281 281 ______P__PO___ -1 -23.73 155.58 -23.88 155.89 TC -24.00 156.20 7 5 123
1936 SP EA 12:00:00 TS -23.91 155.96 290 285 ______P__PP___ -1 -23.78 155.66 -23.92 155.98 TC -24.04 156.26 7 5 121
1936 SP EA 15:00:00 TS -24.04 156.19 304 300 ______P__PP___ -1 -23.92 155.91 -24.07 156.25 TC -24.12 156.41 7 5 120
1936 SP EA 18:00:00 TS -24.17 156.44 316 316 ______P__PP___ -1 -24.08 156.23 -24.22 156.53 TC -24.20 156.58 7 6 118
1936 SP EA 21:00:00 TS -24.30 156.73 342 342 ______P__PP___ -1 -24.26 156.60 -24.36 156.81 TC -24.31 156.80 7 6 118
1936 SP EA 23:00:00 TS -24.41 156.96 bom 369 369 ______O__PO___ -1 -24.40 156.90 -24.45 157.00 TC -24.40 157.00 7 7 116
1936 SP EA 1936-03-23 00:00:00 TS -24.47 157.10 377 377 ______P__OP___ -1 -24.47 157.07 -24.50 157.10 TC -24.46 157.12 7 10 115
1936 SP EA 03:00:00 NR -24.68 157.60 424 424 ______P___P___ -1 -24.70 157.63 TC -24.66 157.56 7 11 116
1936 SP EA 06:00:00 NR -24.94 158.17 483 483 ______P___P___ -1 -24.96 158.26 TC -24.91 158.08 7 12 116
1936 SP EA 09:00:00 NR -25.22 158.79 543 543 ______P___P___ -1 -25.25 158.91 TC -25.19 158.68 7 13 117
1936 SP EA 11:00:00 NR -25.43 159.23 584 584 ______P___O___ -1 -25.46 159.35 TC -25.40 159.10 7 13 118
1936 SP EA 12:00:00 NR -25.54 159.44 605 605 ______P___P___ -1 -25.57 159.57 TC -25.51 159.32 7 14 120
1936 SP EA 14:00:00 NR -25.76 159.88 bom 658 658 ______O___P___ -1 -25.80 160.00 TC -25.73 159.76 7 14 120
1936 SP MM 15:00:00 NR -25.88 160.10 679 679 ______P___P___ -1 -25.92 160.21 TC -25.84 159.99 7 14 122
1936 SP MM 18:00:00 NR -26.25 160.76 688 679 ______P___P___ -1 -26.31 160.82 TC -26.20 160.69 7 14 123
1936 SP MM 21:00:00 NR -26.64 161.41 681 680 ______P___P___ -1 -26.72 161.41 TC -26.56 161.41 7 14 123
1936 SP MM 23:00:00 NR -26.90 161.85 bom 683 ______O___O___ -1 -27.00 161.80 TC -26.80 161.90 7 14 124